sensor_id;sensor_type;location;lat;lon;timestamp;temperature;humidity
8220;DHT22;4151;51.110;7.020;2023-04-01T00:02:00;9.60;99.90
8220;DHT22;4151;51.110;7.020;2023-04-01T00:04:25;9.60;99.90
8220;DHT22;4151;51.110;7.020;2023-04-01T00:06:51;9.60;99.90
8220;DHT22;4151;51.110;7.020;2023-04-01T00:09:17;9.70;99.90
8220;DHT22;4151;51.110;7.020;2023-04-01T00:11:43;9.60;99.90
8220;DHT22;4151;51.110;7.020;2023-04-01T00:14:10;9.60;99.90
8220;DHT22;4151;51.110;7.020;2023-04-01T00:16:36;9.70;99.90
8220;DHT22;4151;51.110;7.020;2023-04-01T00:19:01;9.80;99.90
8220;DHT22;4151;51.110;7.020;2023-04-01T00:21:27;9.70;99.90
8220;DHT22;4151;51.110;7.020;2023-04-01T00:23:53;9.80;99.90
8220;DHT22;4151;51.110;7.020;2023-04-01T00:26:19;9.80;99.90
8220;DHT22;4151;51.110;7.020;2023-04-01T00:28:46;9.80;99.90
8220;DHT22;4151;51.110;7.020;2023-04-01T00:31:13;9.90;99.90
8220;DHT22;4151;51.110;7.020;2023-04-01T00:33:39;10.00;99.90
8220;DHT22;4151;51.110;7.020;2023-04-01T00:38:34;10.10;99.90
8220;DHT22;4151;51.110;7.020;2023-04-01T00:40:59;10.10;99.90
8220;DHT22;4151;51.110;7.020;2023-04-01T00:43:25;10.10;99.90
8220;DHT22;4151;51.110;7.020;2023-04-01T00:45:51;10.10;99.90
8220;DHT22;4151;51.110;7.020;2023-04-01T00:48:28;10.10;99.90
8220;DHT22;4151;51.110;7.020;2023-04-01T00:51:05;10.10;99.90
8220;DHT22;4151;51.110;7.020;2023-04-01T00:53:33;10.10;99.90
8220;DHT22;4151;51.110;7.020;2023-04-01T00:56:24;10.10;99.90
8220;DHT22;4151;51.110;7.020;2023-04-01T00:58:56;10.10;99.90
8220;DHT22;4151;51.110;7.020;2023-04-01T01:01:24;10.10;99.90
8220;DHT22;4151;51.110;7.020;2023-04-01T01:03:50;10.00;99.90
8220;DHT22;4151;51.110;7.020;2023-04-01T01:09:05;10.20;99.90
8220;DHT22;4151;51.110;7.020;2023-04-01T01:11:54;10.20;99.90
8220;DHT22;4151;51.110;7.020;2023-04-01T01:14:32;10.20;99.90
8220;DHT22;4151;51.110;7.020;2023-04-01T01:17:14;10.20;99.90
8220;DHT22;4151;51.110;7.020;2023-04-01T01:19:57;10.00;99.90
8220;DHT22;4151;51.110;7.020;2023-04-01T01:22:51;10.00;99.90
8220;DHT22;4151;51.110;7.020;2023-04-01T01:25:31;10.00;99.90
8220;DHT22;4151;51.110;7.020;2023-04-01T01:36:53;9.90;99.90
8220;DHT22;4151;51.110;7.020;2023-04-01T01:39:21;9.90;99.90
8220;DHT22;4151;51.110;7.020;2023-04-01T01:41:52;9.90;99.90
8220;DHT22;4151;51.110;7.020;2023-04-01T01:44:19;9.80;99.90
8220;DHT22;4151;51.110;7.020;2023-04-01T01:46:47;9.80;99.90
8220;DHT22;4151;51.110;7.020;2023-04-01T01:49:13;9.80;99.90
8220;DHT22;4151;51.110;7.020;2023-04-01T01:51:40;9.80;99.90
8220;DHT22;4151;51.110;7.020;2023-04-01T01:54:13;9.80;99.90
8220;DHT22;4151;51.110;7.020;2023-04-01T01:56:39;9.80;99.90
8220;DHT22;4151;51.110;7.020;2023-04-01T01:59:09;9.90;99.90
8220;DHT22;4151;51.110;7.020;2023-04-01T02:01:39;9.80;99.90
8220;DHT22;4151;51.110;7.020;2023-04-01T02:04:05;9.80;99.90
8220;DHT22;4151;51.110;7.020;2023-04-01T02:06:35;9.70;99.90
8220;DHT22;4151;51.110;7.020;2023-04-01T02:09:04;9.60;99.90
8220;DHT22;4151;51.110;7.020;2023-04-01T02:11:41;9.50;99.90
8220;DHT22;4151;51.110;7.020;2023-04-01T02:14:16;9.50;99.90
8220;DHT22;4151;51.110;7.020;2023-04-01T02:17:00;9.40;99.90
8220;DHT22;4151;51.110;7.020;2023-04-01T02:19:34;9.30;99.90
8220;DHT22;4151;51.110;7.020;2023-04-01T02:22:03;9.30;99.90
8220;DHT22;4151;51.110;7.020;2023-04-01T02:24:31;9.20;99.90
8220;DHT22;4151;51.110;7.020;2023-04-01T02:26:59;9.20;99.90
8220;DHT22;4151;51.110;7.020;2023-04-01T02:29:24;9.20;99.90
8220;DHT22;4151;51.110;7.020;2023-04-01T02:31:51;9.10;99.90
8220;DHT22;4151;51.110;7.020;2023-04-01T02:34:18;9.10;99.90
8220;DHT22;4151;51.110;7.020;2023-04-01T02:36:44;9.10;99.90
8220;DHT22;4151;51.110;7.020;2023-04-01T02:39:10;9.10;99.90
8220;DHT22;4151;51.110;7.020;2023-04-01T02:41:43;9.00;99.90
8220;DHT22;4151;51.110;7.020;2023-04-01T02:44:11;9.00;99.90
8220;DHT22;4151;51.110;7.020;2023-04-01T02:46:36;8.90;99.90
8220;DHT22;4151;51.110;7.020;2023-04-01T02:49:02;8.90;99.90
8220;DHT22;4151;51.110;7.020;2023-04-01T02:51:28;8.90;99.90
8220;DHT22;4151;51.110;7.020;2023-04-01T02:53:54;8.80;99.90
8220;DHT22;4151;51.110;7.020;2023-04-01T02:56:19;8.80;99.90
8220;DHT22;4151;51.110;7.020;2023-04-01T02:58:46;8.70;99.90
8220;DHT22;4151;51.110;7.020;2023-04-01T03:01:11;8.70;99.90
8220;DHT22;4151;51.110;7.020;2023-04-01T03:03:37;8.70;99.90
8220;DHT22;4151;51.110;7.020;2023-04-01T03:06:08;8.70;99.90
8220;DHT22;4151;51.110;7.020;2023-04-01T03:08:34;8.70;99.90
8220;DHT22;4151;51.110;7.020;2023-04-01T03:10:59;8.70;99.90
8220;DHT22;4151;51.110;7.020;2023-04-01T03:13:25;8.70;99.90
8220;DHT22;4151;51.110;7.020;2023-04-01T03:15:51;8.70;99.90
8220;DHT22;4151;51.110;7.020;2023-04-01T03:18:17;8.70;99.90
8220;DHT22;4151;51.110;7.020;2023-04-01T03:20:42;8.70;99.90
8220;DHT22;4151;51.110;7.020;2023-04-01T03:23:08;8.70;99.90
8220;DHT22;4151;51.110;7.020;2023-04-01T03:25:34;8.70;99.90
8220;DHT22;4151;51.110;7.020;2023-04-01T03:27:59;8.70;99.90
8220;DHT22;4151;51.110;7.020;2023-04-01T03:30:26;8.70;99.90
8220;DHT22;4151;51.110;7.020;2023-04-01T03:32:52;8.70;99.90
8220;DHT22;4151;51.110;7.020;2023-04-01T03:35:18;8.70;99.90
8220;DHT22;4151;51.110;7.020;2023-04-01T03:37:43;8.70;99.90
8220;DHT22;4151;51.110;7.020;2023-04-01T03:40:09;8.70;99.90
8220;DHT22;4151;51.110;7.020;2023-04-01T03:42:35;8.70;99.90
8220;DHT22;4151;51.110;7.020;2023-04-01T03:45:01;8.70;99.90
8220;DHT22;4151;51.110;7.020;2023-04-01T03:47:28;8.70;99.90
8220;DHT22;4151;51.110;7.020;2023-04-01T03:49:53;8.70;99.90
8220;DHT22;4151;51.110;7.020;2023-04-01T03:52:19;8.80;99.90
8220;DHT22;4151;51.110;7.020;2023-04-01T03:54:44;8.80;99.90
8220;DHT22;4151;51.110;7.020;2023-04-01T03:57:10;8.80;99.90
8220;DHT22;4151;51.110;7.020;2023-04-01T03:59:35;8.80;99.90
8220;DHT22;4151;51.110;7.020;2023-04-01T04:02:01;8.90;99.90
8220;DHT22;4151;51.110;7.020;2023-04-01T04:04:27;8.90;99.90
8220;DHT22;4151;51.110;7.020;2023-04-01T04:06:54;8.90;99.90
8220;DHT22;4151;51.110;7.020;2023-04-01T04:09:19;8.90;99.90
8220;DHT22;4151;51.110;7.020;2023-04-01T04:11:45;8.90;99.90
8220;DHT22;4151;51.110;7.020;2023-04-01T04:14:10;8.90;99.90
8220;DHT22;4151;51.110;7.020;2023-04-01T04:16:36;8.80;99.90
8220;DHT22;4151;51.110;7.020;2023-04-01T04:19:02;8.80;99.90
8220;DHT22;4151;51.110;7.020;2023-04-01T04:21:28;8.80;99.90
8220;DHT22;4151;51.110;7.020;2023-04-01T04:23:54;8.80;99.90
8220;DHT22;4151;51.110;7.020;2023-04-01T04:26:19;8.80;99.90
8220;DHT22;4151;51.110;7.020;2023-04-01T04:28:45;8.80;99.90
8220;DHT22;4151;51.110;7.020;2023-04-01T04:31:11;8.80;99.90
8220;DHT22;4151;51.110;7.020;2023-04-01T04:33:37;8.80;99.90
8220;DHT22;4151;51.110;7.020;2023-04-01T04:36:03;8.80;99.90
8220;DHT22;4151;51.110;7.020;2023-04-01T04:38:29;8.80;99.90
8220;DHT22;4151;51.110;7.020;2023-04-01T04:40:55;8.80;99.90
8220;DHT22;4151;51.110;7.020;2023-04-01T04:43:21;8.70;99.90
8220;DHT22;4151;51.110;7.020;2023-04-01T04:45:47;8.70;99.90
8220;DHT22;4151;51.110;7.020;2023-04-01T04:48:14;8.80;99.90
8220;DHT22;4151;51.110;7.020;2023-04-01T04:50:44;8.80;99.90
8220;DHT22;4151;51.110;7.020;2023-04-01T04:53:11;8.70;99.90
8220;DHT22;4151;51.110;7.020;2023-04-01T04:55:37;8.70;99.90
8220;DHT22;4151;51.110;7.020;2023-04-01T04:58:02;8.70;99.90
8220;DHT22;4151;51.110;7.020;2023-04-01T05:00:28;8.70;99.90
8220;DHT22;4151;51.110;7.020;2023-04-01T05:02:53;8.70;99.90
8220;DHT22;4151;51.110;7.020;2023-04-01T05:05:19;8.70;99.90
8220;DHT22;4151;51.110;7.020;2023-04-01T05:07:45;8.70;99.90
8220;DHT22;4151;51.110;7.020;2023-04-01T05:10:10;8.70;99.90
8220;DHT22;4151;51.110;7.020;2023-04-01T05:12:36;8.70;99.90
8220;DHT22;4151;51.110;7.020;2023-04-01T05:15:04;8.70;99.90
8220;DHT22;4151;51.110;7.020;2023-04-01T05:17:30;8.70;99.90
8220;DHT22;4151;51.110;7.020;2023-04-01T05:19:56;8.70;99.90
8220;DHT22;4151;51.110;7.020;2023-04-01T05:22:22;8.70;99.90
8220;DHT22;4151;51.110;7.020;2023-04-01T05:24:47;8.70;99.90
8220;DHT22;4151;51.110;7.020;2023-04-01T05:27:13;8.70;99.90
8220;DHT22;4151;51.110;7.020;2023-04-01T05:29:38;8.70;99.90
8220;DHT22;4151;51.110;7.020;2023-04-01T05:32:04;8.70;99.90
8220;DHT22;4151;51.110;7.020;2023-04-01T05:34:29;8.70;99.90
8220;DHT22;4151;51.110;7.020;2023-04-01T05:36:55;8.80;99.90
8220;DHT22;4151;51.110;7.020;2023-04-01T05:39:20;8.70;99.90
8220;DHT22;4151;51.110;7.020;2023-04-01T05:41:46;8.80;99.90
8220;DHT22;4151;51.110;7.020;2023-04-01T05:44:12;8.70;99.90
8220;DHT22;4151;51.110;7.020;2023-04-01T05:46:38;8.70;99.90
8220;DHT22;4151;51.110;7.020;2023-04-01T05:49:03;8.80;99.90
8220;DHT22;4151;51.110;7.020;2023-04-01T05:51:29;8.80;99.90
8220;DHT22;4151;51.110;7.020;2023-04-01T05:53:54;8.80;99.90
8220;DHT22;4151;51.110;7.020;2023-04-01T05:56:20;8.80;99.90
8220;DHT22;4151;51.110;7.020;2023-04-01T05:58:51;8.80;99.90
8220;DHT22;4151;51.110;7.020;2023-04-01T06:01:17;8.80;99.90
8220;DHT22;4151;51.110;7.020;2023-04-01T06:03:44;8.80;99.90
8220;DHT22;4151;51.110;7.020;2023-04-01T06:06:14;8.80;99.90
8220;DHT22;4151;51.110;7.020;2023-04-01T06:08:41;8.80;99.90
8220;DHT22;4151;51.110;7.020;2023-04-01T06:11:19;8.80;99.90
8220;DHT22;4151;51.110;7.020;2023-04-01T06:16:47;8.80;99.90
8220;DHT22;4151;51.110;7.020;2023-04-01T06:22:13;8.80;99.90
8220;DHT22;4151;51.110;7.020;2023-04-01T06:30:24;8.90;99.90
8220;DHT22;4151;51.110;7.020;2023-04-01T06:51:53;8.90;99.90
8220;DHT22;4151;51.110;7.020;2023-04-01T06:54:33;8.90;99.90
8220;DHT22;4151;51.110;7.020;2023-04-01T06:59:51;9.00;99.90
8220;DHT22;4151;51.110;7.020;2023-04-01T07:02:29;9.00;99.90
8220;DHT22;4151;51.110;7.020;2023-04-01T07:04:58;9.00;99.90
8220;DHT22;4151;51.110;7.020;2023-04-01T07:07:52;9.00;99.90
8220;DHT22;4151;51.110;7.020;2023-04-01T07:10:53;9.00;99.90
8220;DHT22;4151;51.110;7.020;2023-04-01T07:13:32;9.00;99.90
8220;DHT22;4151;51.110;7.020;2023-04-01T07:18:52;9.00;99.90
8220;DHT22;4151;51.110;7.020;2023-04-01T07:21:30;9.00;99.90
8220;DHT22;4151;51.110;7.020;2023-04-01T07:24:04;9.00;99.90
8220;DHT22;4151;51.110;7.020;2023-04-01T07:26:31;9.00;99.90
8220;DHT22;4151;51.110;7.020;2023-04-01T07:28:57;9.00;99.90
8220;DHT22;4151;51.110;7.020;2023-04-01T07:37:20;9.00;99.90
8220;DHT22;4151;51.110;7.020;2023-04-01T07:50:31;9.10;99.90
8220;DHT22;4151;51.110;7.020;2023-04-01T08:01:04;9.10;99.90
8220;DHT22;4151;51.110;7.020;2023-04-01T08:04:17;9.10;99.90
8220;DHT22;4151;51.110;7.020;2023-04-01T08:09:28;9.10;99.90
8220;DHT22;4151;51.110;7.020;2023-04-01T08:18:05;9.10;99.90
8220;DHT22;4151;51.110;7.020;2023-04-01T08:20:50;9.20;99.90
8220;DHT22;4151;51.110;7.020;2023-04-01T08:23:37;9.10;99.90
8220;DHT22;4151;51.110;7.020;2023-04-01T08:26:12;9.10;99.90
8220;DHT22;4151;51.110;7.020;2023-04-01T08:29:04;9.20;99.90
8220;DHT22;4151;51.110;7.020;2023-04-01T08:31:37;9.20;99.90
8220;DHT22;4151;51.110;7.020;2023-04-01T08:34:10;9.20;99.90
8220;DHT22;4151;51.110;7.020;2023-04-01T08:36:41;9.20;99.90
8220;DHT22;4151;51.110;7.020;2023-04-01T08:39:37;9.20;99.90
8220;DHT22;4151;51.110;7.020;2023-04-01T08:42:39;9.20;99.90
8220;DHT22;4151;51.110;7.020;2023-04-01T09:07:43;9.20;99.90
8220;DHT22;4151;51.110;7.020;2023-04-01T09:13:20;9.20;99.90
8220;DHT22;4151;51.110;7.020;2023-04-01T09:16:08;9.20;99.90
8220;DHT22;4151;51.110;7.020;2023-04-01T09:32:48;9.50;99.90
8220;DHT22;4151;51.110;7.020;2023-04-01T09:35:23;9.50;99.90
8220;DHT22;4151;51.110;7.020;2023-04-01T09:45:48;9.50;99.90
8220;DHT22;4151;51.110;7.020;2023-04-01T09:48:40;9.50;99.90
8220;DHT22;4151;51.110;7.020;2023-04-01T09:54:17;9.40;99.90
8220;DHT22;4151;51.110;7.020;2023-04-01T09:57:09;9.40;99.90
8220;DHT22;4151;51.110;7.020;2023-04-01T10:26:51;9.30;99.90
8220;DHT22;4151;51.110;7.020;2023-04-01T10:32:24;9.30;99.90
8220;DHT22;4151;51.110;7.020;2023-04-01T10:51:28;9.50;99.90
8220;DHT22;4151;51.110;7.020;2023-04-01T11:11:08;9.60;99.90
8220;DHT22;4151;51.110;7.020;2023-04-01T11:28:54;9.70;99.90
8220;DHT22;4151;51.110;7.020;2023-04-01T11:31:43;9.70;99.90
8220;DHT22;4151;51.110;7.020;2023-04-01T11:34:35;9.70;99.90
8220;DHT22;4151;51.110;7.020;2023-04-01T11:42:45;9.80;99.90
8220;DHT22;4151;51.110;7.020;2023-04-01T11:53:30;9.70;99.90
8220;DHT22;4151;51.110;7.020;2023-04-01T11:56:29;9.60;99.90
8220;DHT22;4151;51.110;7.020;2023-04-01T11:59:29;9.60;99.90
8220;DHT22;4151;51.110;7.020;2023-04-01T12:02:13;9.60;99.90
8220;DHT22;4151;51.110;7.020;2023-04-01T12:10:57;9.70;99.90
8220;DHT22;4151;51.110;7.020;2023-04-01T12:13:41;9.70;99.90
8220;DHT22;4151;51.110;7.020;2023-04-01T12:18:42;9.80;99.90
8220;DHT22;4151;51.110;7.020;2023-04-01T12:21:35;9.90;99.90
8220;DHT22;4151;51.110;7.020;2023-04-01T12:32:36;10.00;99.90
8220;DHT22;4151;51.110;7.020;2023-04-01T12:38:13;9.90;99.90
8220;DHT22;4151;51.110;7.020;2023-04-01T12:41:03;9.90;99.90
8220;DHT22;4151;51.110;7.020;2023-04-01T12:46:41;9.90;99.90
8220;DHT22;4151;51.110;7.020;2023-04-01T12:54:48;9.90;99.90
8220;DHT22;4151;51.110;7.020;2023-04-01T13:09:09;9.90;99.90
8220;DHT22;4151;51.110;7.020;2023-04-01T13:15:03;9.80;99.90
8220;DHT22;4151;51.110;7.020;2023-04-01T13:20:16;9.80;99.90
8220;DHT22;4151;51.110;7.020;2023-04-01T13:25:54;9.80;99.90
8220;DHT22;4151;51.110;7.020;2023-04-01T13:28:26;9.80;99.90
8220;DHT22;4151;51.110;7.020;2023-04-01T13:33:37;10.00;99.90
8220;DHT22;4151;51.110;7.020;2023-04-01T13:39:17;10.00;99.90
8220;DHT22;4151;51.110;7.020;2023-04-01T13:44:46;10.00;99.90
8220;DHT22;4151;51.110;7.020;2023-04-01T13:53:06;10.10;99.90
8220;DHT22;4151;51.110;7.020;2023-04-01T13:58:40;10.10;99.90
8220;DHT22;4151;51.110;7.020;2023-04-01T14:04:03;10.10;99.90
8220;DHT22;4151;51.110;7.020;2023-04-01T14:12:58;10.20;99.90
8220;DHT22;4151;51.110;7.020;2023-04-01T14:20:47;10.10;99.90
8220;DHT22;4151;51.110;7.020;2023-04-01T14:32:30;10.10;99.90
8220;DHT22;4151;51.110;7.020;2023-04-01T14:49:13;10.10;99.90
8220;DHT22;4151;51.110;7.020;2023-04-01T14:51:36;10.10;99.90
8220;DHT22;4151;51.110;7.020;2023-04-01T14:54:16;10.10;99.90
8220;DHT22;4151;51.110;7.020;2023-04-01T14:56:50;10.10;99.90
8220;DHT22;4151;51.110;7.020;2023-04-01T15:05:15;10.00;99.90
8220;DHT22;4151;51.110;7.020;2023-04-01T15:07:54;10.00;99.90
8220;DHT22;4151;51.110;7.020;2023-04-01T15:27:00;10.00;99.90
8220;DHT22;4151;51.110;7.020;2023-04-01T15:38:30;10.10;99.90
8220;DHT22;4151;51.110;7.020;2023-04-01T15:44:02;10.20;99.90
8220;DHT22;4151;51.110;7.020;2023-04-01T15:46:44;10.10;99.90
8220;DHT22;4151;51.110;7.020;2023-04-01T15:49:34;10.20;99.90
8220;DHT22;4151;51.110;7.020;2023-04-01T15:52:10;10.20;99.90
8220;DHT22;4151;51.110;7.020;2023-04-01T15:57:52;10.00;99.90
8220;DHT22;4151;51.110;7.020;2023-04-01T16:00:45;10.00;99.90
8220;DHT22;4151;51.110;7.020;2023-04-01T16:12:24;9.90;99.90
8220;DHT22;4151;51.110;7.020;2023-04-01T16:20:51;9.80;99.90
8220;DHT22;4151;51.110;7.020;2023-04-01T16:23:37;9.70;99.90
8220;DHT22;4151;51.110;7.020;2023-04-01T16:26:48;9.70;99.90
8220;DHT22;4151;51.110;7.020;2023-04-01T16:29:38;9.70;99.90
8220;DHT22;4151;51.110;7.020;2023-04-01T16:32:26;9.70;99.90
8220;DHT22;4151;51.110;7.020;2023-04-01T16:38:33;9.60;99.90
8220;DHT22;4151;51.110;7.020;2023-04-01T16:41:17;9.60;99.90
8220;DHT22;4151;51.110;7.020;2023-04-01T16:43:51;9.60;99.90
8220;DHT22;4151;51.110;7.020;2023-04-01T16:46:33;9.60;99.90
8220;DHT22;4151;51.110;7.020;2023-04-01T16:51:53;9.60;99.90
8220;DHT22;4151;51.110;7.020;2023-04-01T16:54:47;9.50;99.90
8220;DHT22;4151;51.110;7.020;2023-04-01T16:57:28;9.50;99.90
8220;DHT22;4151;51.110;7.020;2023-04-01T17:02:38;9.50;99.90
8220;DHT22;4151;51.110;7.020;2023-04-01T17:05:11;9.50;99.90
8220;DHT22;4151;51.110;7.020;2023-04-01T17:18:40;9.50;99.90
8220;DHT22;4151;51.110;7.020;2023-04-01T17:21:18;9.50;99.90
8220;DHT22;4151;51.110;7.020;2023-04-01T17:23:51;9.40;99.90
8220;DHT22;4151;51.110;7.020;2023-04-01T17:29:06;9.40;99.90
8220;DHT22;4151;51.110;7.020;2023-04-01T17:34:31;9.40;99.90
8220;DHT22;4151;51.110;7.020;2023-04-01T17:45:21;9.40;99.90
8220;DHT22;4151;51.110;7.020;2023-04-01T17:51:22;9.40;99.90
8220;DHT22;4151;51.110;7.020;2023-04-01T17:56:45;9.40;99.90
8220;DHT22;4151;51.110;7.020;2023-04-01T17:59:49;9.40;99.90
8220;DHT22;4151;51.110;7.020;2023-04-01T18:11:15;9.40;99.90
8220;DHT22;4151;51.110;7.020;2023-04-01T18:13:31;9.40;99.90
8220;DHT22;4151;51.110;7.020;2023-04-01T18:19:48;9.30;99.90
8220;DHT22;4151;51.110;7.020;2023-04-01T18:30:34;9.20;99.90
8220;DHT22;4151;51.110;7.020;2023-04-01T18:33:19;9.20;99.90
8220;DHT22;4151;51.110;7.020;2023-04-01T18:36:09;9.20;99.90
8220;DHT22;4151;51.110;7.020;2023-04-01T18:39:23;9.20;99.90
8220;DHT22;4151;51.110;7.020;2023-04-01T18:42:06;9.10;99.90
8220;DHT22;4151;51.110;7.020;2023-04-01T18:44:46;9.10;99.90
8220;DHT22;4151;51.110;7.020;2023-04-01T18:52:37;9.00;99.90
8220;DHT22;4151;51.110;7.020;2023-04-01T18:57:52;9.00;99.90
8220;DHT22;4151;51.110;7.020;2023-04-01T19:00:26;9.00;99.90
8220;DHT22;4151;51.110;7.020;2023-04-01T19:05:40;8.90;99.90
8220;DHT22;4151;51.110;7.020;2023-04-01T19:08:31;8.90;99.90
8220;DHT22;4151;51.110;7.020;2023-04-01T19:11:26;8.90;99.90
8220;DHT22;4151;51.110;7.020;2023-04-01T19:14:12;8.90;99.90
8220;DHT22;4151;51.110;7.020;2023-04-01T19:19:49;8.90;99.90
8220;DHT22;4151;51.110;7.020;2023-04-01T19:22:41;8.90;99.90
8220;DHT22;4151;51.110;7.020;2023-04-01T19:28:17;8.90;99.90
8220;DHT22;4151;51.110;7.020;2023-04-01T19:31:01;8.90;99.90
8220;DHT22;4151;51.110;7.020;2023-04-01T19:42:02;8.90;99.90
8220;DHT22;4151;51.110;7.020;2023-04-01T19:52:40;8.90;99.90
8220;DHT22;4151;51.110;7.020;2023-04-01T20:00:59;8.90;99.90
8220;DHT22;4151;51.110;7.020;2023-04-01T20:03:39;8.90;99.90
8220;DHT22;4151;51.110;7.020;2023-04-01T20:11:51;8.90;99.90
8220;DHT22;4151;51.110;7.020;2023-04-01T20:14:34;8.90;99.90
8220;DHT22;4151;51.110;7.020;2023-04-01T20:17:16;8.90;99.90
8220;DHT22;4151;51.110;7.020;2023-04-01T20:20:03;8.80;99.90
8220;DHT22;4151;51.110;7.020;2023-04-01T20:25:26;8.90;99.90
8220;DHT22;4151;51.110;7.020;2023-04-01T20:28:03;8.80;99.90
8220;DHT22;4151;51.110;7.020;2023-04-01T20:36:06;8.80;99.90
8220;DHT22;4151;51.110;7.020;2023-04-01T20:44:41;8.80;99.90
8220;DHT22;4151;51.110;7.020;2023-04-01T20:47:26;8.80;99.90
8220;DHT22;4151;51.110;7.020;2023-04-01T20:58:24;8.90;99.90
8220;DHT22;4151;51.110;7.020;2023-04-01T21:03:54;8.90;99.90
8220;DHT22;4151;51.110;7.020;2023-04-01T21:09:27;8.90;99.90
8220;DHT22;4151;51.110;7.020;2023-04-01T21:12:14;8.90;99.90
8220;DHT22;4151;51.110;7.020;2023-04-01T21:15:07;8.90;99.90
8220;DHT22;4151;51.110;7.020;2023-04-01T21:23:19;8.80;99.90
8220;DHT22;4151;51.110;7.020;2023-04-01T21:34:27;8.80;99.90
8220;DHT22;4151;51.110;7.020;2023-04-01T21:58:50;8.80;99.90
8220;DHT22;4151;51.110;7.020;2023-04-01T22:09:24;8.80;99.90
8220;DHT22;4151;51.110;7.020;2023-04-01T22:14:51;8.90;99.90
8220;DHT22;4151;51.110;7.020;2023-04-01T22:17:28;8.90;99.90
8220;DHT22;4151;51.110;7.020;2023-04-01T22:29:06;8.80;99.90
8220;DHT22;4151;51.110;7.020;2023-04-01T22:31:49;8.90;99.90
8220;DHT22;4151;51.110;7.020;2023-04-01T22:34:26;8.90;99.90
8220;DHT22;4151;51.110;7.020;2023-04-01T22:37:17;8.90;99.90
8220;DHT22;4151;51.110;7.020;2023-04-01T22:40:09;8.90;99.90
8220;DHT22;4151;51.110;7.020;2023-04-01T22:43:08;8.90;99.90
8220;DHT22;4151;51.110;7.020;2023-04-01T22:45:43;8.90;99.90
8220;DHT22;4151;51.110;7.020;2023-04-01T22:48:33;8.90;99.90
8220;DHT22;4151;51.110;7.020;2023-04-01T22:51:18;9.00;99.90
8220;DHT22;4151;51.110;7.020;2023-04-01T22:54:15;8.90;99.90
8220;DHT22;4151;51.110;7.020;2023-04-01T22:56:53;9.00;99.90
8220;DHT22;4151;51.110;7.020;2023-04-01T22:59:45;9.00;99.90
8220;DHT22;4151;51.110;7.020;2023-04-01T23:04:55;9.00;99.90
8220;DHT22;4151;51.110;7.020;2023-04-01T23:10:04;9.00;99.90
8220;DHT22;4151;51.110;7.020;2023-04-01T23:12:32;9.00;99.90
8220;DHT22;4151;51.110;7.020;2023-04-01T23:15:00;9.00;99.90
8220;DHT22;4151;51.110;7.020;2023-04-01T23:17:56;9.00;99.90
8220;DHT22;4151;51.110;7.020;2023-04-01T23:20:31;9.00;99.90
8220;DHT22;4151;51.110;7.020;2023-04-01T23:28:39;9.00;99.90
8220;DHT22;4151;51.110;7.020;2023-04-01T23:31:32;9.00;99.90
8220;DHT22;4151;51.110;7.020;2023-04-01T23:36:51;9.00;99.90
8220;DHT22;4151;51.110;7.020;2023-04-01T23:39:22;9.00;99.90
8220;DHT22;4151;51.110;7.020;2023-04-01T23:41:50;8.80;99.90
8220;DHT22;4151;51.110;7.020;2023-04-01T23:44:16;8.70;99.90
8220;DHT22;4151;51.110;7.020;2023-04-01T23:46:44;8.60;99.90
8220;DHT22;4151;51.110;7.020;2023-04-01T23:49:19;8.50;99.90
8220;DHT22;4151;51.110;7.020;2023-04-01T23:51:56;8.40;99.90
8220;DHT22;4151;51.110;7.020;2023-04-01T23:54:48;8.40;99.90
8220;DHT22;4151;51.110;7.020;2023-04-01T23:57:22;8.40;99.90
